sensor_id;sensor_type;location;lat;lon;timestamp;P1;durP1;ratioP1;P2;durP2;ratioP2
36009;SDS011;22076;52.182;5.404;2023-04-16T00:02:28;6.03;;;2.63;;
36009;SDS011;22076;52.182;5.404;2023-04-16T00:04:54;5.95;;;2.20;;
36009;SDS011;22076;52.182;5.404;2023-04-16T00:07:22;8.77;;;2.10;;
36009;SDS011;22076;52.182;5.404;2023-04-16T00:09:48;4.97;;;1.90;;
36009;SDS011;22076;52.182;5.404;2023-04-16T00:12:15;6.28;;;2.30;;
36009;SDS011;22076;52.182;5.404;2023-04-16T00:14:42;6.13;;;2.28;;
36009;SDS011;22076;52.182;5.404;2023-04-16T00:17:08;6.85;;;2.42;;
36009;SDS011;22076;52.182;5.404;2023-04-16T00:19:35;9.82;;;2.83;;
36009;SDS011;22076;52.182;5.404;2023-04-16T00:22:01;12.63;;;2.80;;
36009;SDS011;22076;52.182;5.404;2023-04-16T00:24:29;14.82;;;4.03;;
36009;SDS011;22076;52.182;5.404;2023-04-16T00:26:56;10.70;;;3.25;;
36009;SDS011;22076;52.182;5.404;2023-04-16T00:29:22;16.13;;;3.17;;
36009;SDS011;22076;52.182;5.404;2023-04-16T00:31:49;14.85;;;4.47;;
36009;SDS011;22076;52.182;5.404;2023-04-16T00:34:15;9.15;;;3.22;;
36009;SDS011;22076;52.182;5.404;2023-04-16T00:36:42;4.65;;;2.15;;
36009;SDS011;22076;52.182;5.404;2023-04-16T00:39:08;14.70;;;3.63;;
36009;SDS011;22076;52.182;5.404;2023-04-16T00:41:36;9.82;;;3.10;;
36009;SDS011;22076;52.182;5.404;2023-04-16T00:44:03;11.75;;;3.25;;
36009;SDS011;22076;52.182;5.404;2023-04-16T00:46:29;9.80;;;3.25;;
36009;SDS011;22076;52.182;5.404;2023-04-16T00:48:59;10.55;;;2.67;;
36009;SDS011;22076;52.182;5.404;2023-04-16T00:51:26;11.18;;;2.80;;
36009;SDS011;22076;52.182;5.404;2023-04-16T00:53:52;11.85;;;3.80;;
36009;SDS011;22076;52.182;5.404;2023-04-16T00:56:19;11.40;;;3.35;;
36009;SDS011;22076;52.182;5.404;2023-04-16T00:58:49;10.50;;;3.53;;
36009;SDS011;22076;52.182;5.404;2023-04-16T01:01:16;11.25;;;3.47;;
36009;SDS011;22076;52.182;5.404;2023-04-16T01:03:43;14.93;;;4.68;;
36009;SDS011;22076;52.182;5.404;2023-04-16T01:06:10;13.07;;;3.72;;
36009;SDS011;22076;52.182;5.404;2023-04-16T01:08:37;11.48;;;3.03;;
36009;SDS011;22076;52.182;5.404;2023-04-16T01:11:03;14.93;;;3.55;;
36009;SDS011;22076;52.182;5.404;2023-04-16T01:13:31;10.10;;;3.40;;
36009;SDS011;22076;52.182;5.404;2023-04-16T01:15:59;17.65;;;4.32;;
36009;SDS011;22076;52.182;5.404;2023-04-16T01:18:26;17.33;;;4.47;;
36009;SDS011;22076;52.182;5.404;2023-04-16T01:20:54;18.27;;;5.10;;
36009;SDS011;22076;52.182;5.404;2023-04-16T01:23:20;11.20;;;4.80;;
36009;SDS011;22076;52.182;5.404;2023-04-16T01:25:47;11.60;;;4.50;;
36009;SDS011;22076;52.182;5.404;2023-04-16T01:28:13;10.20;;;3.70;;
36009;SDS011;22076;52.182;5.404;2023-04-16T01:30:40;9.68;;;4.40;;
36009;SDS011;22076;52.182;5.404;2023-04-16T01:33:08;15.27;;;4.68;;
36009;SDS011;22076;52.182;5.404;2023-04-16T01:35:35;13.05;;;4.13;;
36009;SDS011;22076;52.182;5.404;2023-04-16T01:38:03;12.13;;;4.38;;
36009;SDS011;22076;52.182;5.404;2023-04-16T01:40:31;12.75;;;4.60;;
36009;SDS011;22076;52.182;5.404;2023-04-16T01:42:58;13.60;;;4.93;;
36009;SDS011;22076;52.182;5.404;2023-04-16T01:45:24;19.35;;;5.28;;
36009;SDS011;22076;52.182;5.404;2023-04-16T01:47:51;17.67;;;4.82;;
36009;SDS011;22076;52.182;5.404;2023-04-16T01:50:18;18.50;;;6.10;;
36009;SDS011;22076;52.182;5.404;2023-04-16T01:52:45;19.02;;;6.50;;
36009;SDS011;22076;52.182;5.404;2023-04-16T01:55:13;17.42;;;5.32;;
36009;SDS011;22076;52.182;5.404;2023-04-16T01:57:40;18.60;;;6.93;;
36009;SDS011;22076;52.182;5.404;2023-04-16T02:00:07;17.88;;;5.35;;
36009;SDS011;22076;52.182;5.404;2023-04-16T02:02:34;25.50;;;6.20;;
36009;SDS011;22076;52.182;5.404;2023-04-16T02:05:01;15.30;;;5.70;;
36009;SDS011;22076;52.182;5.404;2023-04-16T02:07:27;19.50;;;6.75;;
36009;SDS011;22076;52.182;5.404;2023-04-16T02:09:55;17.45;;;6.20;;
36009;SDS011;22076;52.182;5.404;2023-04-16T02:12:23;12.88;;;5.32;;
36009;SDS011;22076;52.182;5.404;2023-04-16T02:14:50;20.25;;;6.85;;
36009;SDS011;22076;52.182;5.404;2023-04-16T02:17:16;19.63;;;6.10;;
36009;SDS011;22076;52.182;5.404;2023-04-16T02:19:43;16.77;;;6.70;;
36009;SDS011;22076;52.182;5.404;2023-04-16T02:22:10;20.08;;;6.85;;
36009;SDS011;22076;52.182;5.404;2023-04-16T02:24:36;16.10;;;6.38;;
36009;SDS011;22076;52.182;5.404;2023-04-16T02:27:03;27.75;;;7.32;;
36009;SDS011;22076;52.182;5.404;2023-04-16T02:29:31;13.00;;;4.80;;
36009;SDS011;22076;52.182;5.404;2023-04-16T02:31:57;12.43;;;6.10;;
36009;SDS011;22076;52.182;5.404;2023-04-16T02:34:24;18.95;;;6.93;;
36009;SDS011;22076;52.182;5.404;2023-04-16T02:36:51;10.63;;;5.70;;
36009;SDS011;22076;52.182;5.404;2023-04-16T02:39:18;19.30;;;6.10;;
36009;SDS011;22076;52.182;5.404;2023-04-16T02:41:44;18.02;;;6.95;;
36009;SDS011;22076;52.182;5.404;2023-04-16T02:44:11;19.83;;;8.57;;
36009;SDS011;22076;52.182;5.404;2023-04-16T02:46:39;22.25;;;7.28;;
36009;SDS011;22076;52.182;5.404;2023-04-16T02:49:05;16.15;;;6.93;;
36009;SDS011;22076;52.182;5.404;2023-04-16T02:51:32;17.08;;;6.53;;
36009;SDS011;22076;52.182;5.404;2023-04-16T02:53:58;23.95;;;9.40;;
36009;SDS011;22076;52.182;5.404;2023-04-16T02:56:25;15.90;;;7.82;;
36009;SDS011;22076;52.182;5.404;2023-04-16T02:58:51;23.40;;;7.00;;
36009;SDS011;22076;52.182;5.404;2023-04-16T03:01:18;21.65;;;9.88;;
36009;SDS011;22076;52.182;5.404;2023-04-16T03:03:46;14.93;;;7.70;;
36009;SDS011;22076;52.182;5.404;2023-04-16T03:06:12;25.23;;;9.65;;
36009;SDS011;22076;52.182;5.404;2023-04-16T03:08:38;23.25;;;9.45;;
36009;SDS011;22076;52.182;5.404;2023-04-16T03:11:05;35.10;;;11.77;;
36009;SDS011;22076;52.182;5.404;2023-04-16T03:13:32;20.88;;;10.13;;
36009;SDS011;22076;52.182;5.404;2023-04-16T03:15:58;22.90;;;10.73;;
36009;SDS011;22076;52.182;5.404;2023-04-16T03:18:25;20.98;;;9.13;;
36009;SDS011;22076;52.182;5.404;2023-04-16T03:20:52;24.02;;;10.48;;
36009;SDS011;22076;52.182;5.404;2023-04-16T03:23:19;18.25;;;7.55;;
36009;SDS011;22076;52.182;5.404;2023-04-16T03:25:45;22.70;;;7.50;;
36009;SDS011;22076;52.182;5.404;2023-04-16T03:28:12;17.88;;;8.02;;
36009;SDS011;22076;52.182;5.404;2023-04-16T03:30:39;21.40;;;8.30;;
36009;SDS011;22076;52.182;5.404;2023-04-16T03:33:05;18.23;;;7.38;;
36009;SDS011;22076;52.182;5.404;2023-04-16T03:35:32;20.30;;;8.00;;
36009;SDS011;22076;52.182;5.404;2023-04-16T03:38:02;18.17;;;6.95;;
36009;SDS011;22076;52.182;5.404;2023-04-16T03:40:29;20.73;;;8.98;;
36009;SDS011;22076;52.182;5.404;2023-04-16T03:42:56;22.40;;;8.35;;
36009;SDS011;22076;52.182;5.404;2023-04-16T03:45:22;22.60;;;8.27;;
36009;SDS011;22076;52.182;5.404;2023-04-16T03:47:49;18.15;;;8.05;;
36009;SDS011;22076;52.182;5.404;2023-04-16T03:50:16;16.15;;;7.40;;
36009;SDS011;22076;52.182;5.404;2023-04-16T03:52:43;18.52;;;7.68;;
36009;SDS011;22076;52.182;5.404;2023-04-16T03:55:12;20.67;;;8.77;;
36009;SDS011;22076;52.182;5.404;2023-04-16T03:57:39;20.60;;;9.30;;
36009;SDS011;22076;52.182;5.404;2023-04-16T04:00:06;19.52;;;8.13;;
36009;SDS011;22076;52.182;5.404;2023-04-16T04:02:33;17.60;;;8.02;;
36009;SDS011;22076;52.182;5.404;2023-04-16T04:04:59;23.27;;;9.55;;
36009;SDS011;22076;52.182;5.404;2023-04-16T04:07:26;21.40;;;9.43;;
36009;SDS011;22076;52.182;5.404;2023-04-16T04:09:52;21.98;;;7.88;;
36009;SDS011;22076;52.182;5.404;2023-04-16T04:12:20;22.92;;;8.65;;
36009;SDS011;22076;52.182;5.404;2023-04-16T04:14:46;19.60;;;7.50;;
36009;SDS011;22076;52.182;5.404;2023-04-16T04:17:13;18.13;;;7.40;;
36009;SDS011;22076;52.182;5.404;2023-04-16T04:19:39;20.80;;;8.70;;
36009;SDS011;22076;52.182;5.404;2023-04-16T04:22:06;19.95;;;9.02;;
36009;SDS011;22076;52.182;5.404;2023-04-16T04:24:32;21.33;;;9.23;;
36009;SDS011;22076;52.182;5.404;2023-04-16T04:26:59;24.00;;;9.48;;
36009;SDS011;22076;52.182;5.404;2023-04-16T04:29:28;25.88;;;10.73;;
36009;SDS011;22076;52.182;5.404;2023-04-16T04:31:54;24.38;;;9.20;;
36009;SDS011;22076;52.182;5.404;2023-04-16T04:34:22;19.92;;;8.38;;
36009;SDS011;22076;52.182;5.404;2023-04-16T04:36:49;16.00;;;6.82;;
36009;SDS011;22076;52.182;5.404;2023-04-16T04:39:16;18.60;;;8.18;;
36009;SDS011;22076;52.182;5.404;2023-04-16T04:41:44;23.05;;;8.50;;
36009;SDS011;22076;52.182;5.404;2023-04-16T04:44:11;24.65;;;8.55;;
36009;SDS011;22076;52.182;5.404;2023-04-16T04:46:39;22.33;;;8.35;;
36009;SDS011;22076;52.182;5.404;2023-04-16T04:49:06;29.13;;;11.13;;
36009;SDS011;22076;52.182;5.404;2023-04-16T04:51:32;23.00;;;9.63;;
36009;SDS011;22076;52.182;5.404;2023-04-16T04:53:59;26.35;;;9.25;;
36009;SDS011;22076;52.182;5.404;2023-04-16T04:56:25;18.70;;;8.77;;
36009;SDS011;22076;52.182;5.404;2023-04-16T04:58:52;21.48;;;8.05;;
36009;SDS011;22076;52.182;5.404;2023-04-16T05:01:19;25.02;;;9.88;;
36009;SDS011;22076;52.182;5.404;2023-04-16T05:03:47;26.85;;;9.20;;
36009;SDS011;22076;52.182;5.404;2023-04-16T05:06:14;25.83;;;9.48;;
36009;SDS011;22076;52.182;5.404;2023-04-16T05:08:41;26.15;;;10.88;;
36009;SDS011;22076;52.182;5.404;2023-04-16T05:11:08;27.73;;;10.85;;
36009;SDS011;22076;52.182;5.404;2023-04-16T05:13:34;22.38;;;11.10;;
36009;SDS011;22076;52.182;5.404;2023-04-16T05:16:01;23.85;;;9.00;;
36009;SDS011;22076;52.182;5.404;2023-04-16T05:18:27;22.02;;;9.95;;
36009;SDS011;22076;52.182;5.404;2023-04-16T05:20:55;24.73;;;9.35;;
36009;SDS011;22076;52.182;5.404;2023-04-16T05:23:22;22.25;;;9.55;;
36009;SDS011;22076;52.182;5.404;2023-04-16T05:25:48;20.33;;;8.25;;
36009;SDS011;22076;52.182;5.404;2023-04-16T05:28:15;28.23;;;9.90;;
36009;SDS011;22076;52.182;5.404;2023-04-16T05:30:41;23.58;;;9.90;;
36009;SDS011;22076;52.182;5.404;2023-04-16T05:33:08;28.30;;;11.18;;
36009;SDS011;22076;52.182;5.404;2023-04-16T05:35:35;28.08;;;8.75;;
36009;SDS011;22076;52.182;5.404;2023-04-16T05:38:02;26.52;;;10.45;;
36009;SDS011;22076;52.182;5.404;2023-04-16T05:40:30;21.33;;;9.95;;
36009;SDS011;22076;52.182;5.404;2023-04-16T05:42:56;20.67;;;9.77;;
36009;SDS011;22076;52.182;5.404;2023-04-16T05:45:23;29.38;;;11.02;;
36009;SDS011;22076;52.182;5.404;2023-04-16T05:47:49;24.10;;;8.82;;
36009;SDS011;22076;52.182;5.404;2023-04-16T05:50:16;21.20;;;9.57;;
36009;SDS011;22076;52.182;5.404;2023-04-16T05:52:42;24.45;;;8.98;;
36009;SDS011;22076;52.182;5.404;2023-04-16T05:55:10;26.48;;;9.05;;
36009;SDS011;22076;52.182;5.404;2023-04-16T05:57:37;21.55;;;7.68;;
36009;SDS011;22076;52.182;5.404;2023-04-16T06:00:04;24.88;;;8.43;;
36009;SDS011;22076;52.182;5.404;2023-04-16T06:02:31;20.27;;;7.93;;
36009;SDS011;22076;52.182;5.404;2023-04-16T06:04:58;21.52;;;9.30;;
36009;SDS011;22076;52.182;5.404;2023-04-16T06:07:25;28.17;;;9.60;;
36009;SDS011;22076;52.182;5.404;2023-04-16T06:09:51;30.40;;;10.82;;
36009;SDS011;22076;52.182;5.404;2023-04-16T06:12:19;27.52;;;10.57;;
36009;SDS011;22076;52.182;5.404;2023-04-16T06:14:46;26.23;;;10.18;;
36009;SDS011;22076;52.182;5.404;2023-04-16T06:17:12;33.85;;;11.23;;
36009;SDS011;22076;52.182;5.404;2023-04-16T06:19:39;26.05;;;10.77;;
36009;SDS011;22076;52.182;5.404;2023-04-16T06:22:05;23.38;;;10.05;;
36009;SDS011;22076;52.182;5.404;2023-04-16T06:24:32;28.05;;;11.77;;
36009;SDS011;22076;52.182;5.404;2023-04-16T06:26:59;27.23;;;11.65;;
36009;SDS011;22076;52.182;5.404;2023-04-16T06:29:27;23.05;;;10.65;;
36009;SDS011;22076;52.182;5.404;2023-04-16T06:31:53;22.63;;;9.95;;
36009;SDS011;22076;52.182;5.404;2023-04-16T06:34:20;28.20;;;9.98;;
36009;SDS011;22076;52.182;5.404;2023-04-16T06:36:46;21.95;;;10.65;;
36009;SDS011;22076;52.182;5.404;2023-04-16T06:39:13;35.42;;;13.40;;
36009;SDS011;22076;52.182;5.404;2023-04-16T06:41:39;27.88;;;11.38;;
36009;SDS011;22076;52.182;5.404;2023-04-16T06:44:06;22.98;;;11.10;;
36009;SDS011;22076;52.182;5.404;2023-04-16T06:46:34;28.00;;;13.23;;
36009;SDS011;22076;52.182;5.404;2023-04-16T06:49:00;23.65;;;11.65;;
36009;SDS011;22076;52.182;5.404;2023-04-16T06:51:26;26.55;;;10.50;;
36009;SDS011;22076;52.182;5.404;2023-04-16T06:53:53;37.10;;;14.32;;
36009;SDS011;22076;52.182;5.404;2023-04-16T06:56:20;26.50;;;13.93;;
36009;SDS011;22076;52.182;5.404;2023-04-16T06:58:46;20.65;;;11.38;;
36009;SDS011;22076;52.182;5.404;2023-04-16T07:01:13;29.70;;;13.65;;
36009;SDS011;22076;52.182;5.404;2023-04-16T07:03:41;32.92;;;15.40;;
36009;SDS011;22076;52.182;5.404;2023-04-16T07:06:08;29.85;;;16.38;;
36009;SDS011;22076;52.182;5.404;2023-04-16T07:08:34;37.92;;;16.15;;
36009;SDS011;22076;52.182;5.404;2023-04-16T07:11:01;33.83;;;14.85;;
36009;SDS011;22076;52.182;5.404;2023-04-16T07:13:27;32.15;;;14.57;;
36009;SDS011;22076;52.182;5.404;2023-04-16T07:15:54;33.13;;;15.50;;
36009;SDS011;22076;52.182;5.404;2023-04-16T07:18:20;32.13;;;16.05;;
36009;SDS011;22076;52.182;5.404;2023-04-16T07:20:48;30.02;;;14.90;;
36009;SDS011;22076;52.182;5.404;2023-04-16T07:23:15;29.80;;;13.95;;
36009;SDS011;22076;52.182;5.404;2023-04-16T07:25:41;29.35;;;14.02;;
36009;SDS011;22076;52.182;5.404;2023-04-16T07:28:08;25.90;;;12.77;;
36009;SDS011;22076;52.182;5.404;2023-04-16T07:30:35;27.30;;;13.20;;
36009;SDS011;22076;52.182;5.404;2023-04-16T07:33:01;21.08;;;11.10;;
36009;SDS011;22076;52.182;5.404;2023-04-16T07:35:28;24.67;;;12.13;;
36009;SDS011;22076;52.182;5.404;2023-04-16T07:37:56;23.33;;;11.20;;
36009;SDS011;22076;52.182;5.404;2023-04-16T07:40:23;28.13;;;11.35;;
36009;SDS011;22076;52.182;5.404;2023-04-16T07:42:50;29.10;;;11.93;;
36009;SDS011;22076;52.182;5.404;2023-04-16T07:45:17;27.88;;;11.85;;
36009;SDS011;22076;52.182;5.404;2023-04-16T07:47:44;20.35;;;10.85;;
36009;SDS011;22076;52.182;5.404;2023-04-16T07:50:10;20.63;;;9.95;;
36009;SDS011;22076;52.182;5.404;2023-04-16T07:52:37;24.15;;;11.85;;
36009;SDS011;22076;52.182;5.404;2023-04-16T07:55:06;25.63;;;12.30;;
36009;SDS011;22076;52.182;5.404;2023-04-16T07:57:34;18.73;;;10.50;;
36009;SDS011;22076;52.182;5.404;2023-04-16T08:00:01;21.67;;;10.07;;
36009;SDS011;22076;52.182;5.404;2023-04-16T08:02:29;18.13;;;10.13;;
36009;SDS011;22076;52.182;5.404;2023-04-16T08:04:55;23.67;;;11.02;;
36009;SDS011;22076;52.182;5.404;2023-04-16T08:07:22;27.35;;;11.43;;
36009;SDS011;22076;52.182;5.404;2023-04-16T08:09:49;23.50;;;9.90;;
36009;SDS011;22076;52.182;5.404;2023-04-16T08:12:18;17.30;;;9.07;;
36009;SDS011;22076;52.182;5.404;2023-04-16T08:14:48;19.98;;;9.52;;
36009;SDS011;22076;52.182;5.404;2023-04-16T08:17:14;18.48;;;9.45;;
36009;SDS011;22076;52.182;5.404;2023-04-16T08:19:41;19.55;;;9.32;;
36009;SDS011;22076;52.182;5.404;2023-04-16T08:22:08;17.58;;;8.57;;
36009;SDS011;22076;52.182;5.404;2023-04-16T08:24:35;17.23;;;9.52;;
36009;SDS011;22076;52.182;5.404;2023-04-16T08:27:01;17.58;;;8.30;;
36009;SDS011;22076;52.182;5.404;2023-04-16T08:29:29;17.42;;;7.97;;
36009;SDS011;22076;52.182;5.404;2023-04-16T08:31:58;15.55;;;7.85;;
36009;SDS011;22076;52.182;5.404;2023-04-16T08:34:25;16.00;;;7.97;;
36009;SDS011;22076;52.182;5.404;2023-04-16T08:36:51;14.13;;;7.15;;
36009;SDS011;22076;52.182;5.404;2023-04-16T08:39:18;13.63;;;7.82;;
36009;SDS011;22076;52.182;5.404;2023-04-16T08:41:45;17.77;;;7.43;;
36009;SDS011;22076;52.182;5.404;2023-04-16T08:44:13;16.20;;;8.07;;
36009;SDS011;22076;52.182;5.404;2023-04-16T08:46:44;14.20;;;6.75;;
36009;SDS011;22076;52.182;5.404;2023-04-16T08:49:14;15.00;;;7.63;;
36009;SDS011;22076;52.182;5.404;2023-04-16T08:51:42;14.80;;;7.63;;
36009;SDS011;22076;52.182;5.404;2023-04-16T08:54:11;14.05;;;6.88;;
36009;SDS011;22076;52.182;5.404;2023-04-16T08:56:39;12.40;;;7.13;;
36009;SDS011;22076;52.182;5.404;2023-04-16T08:59:08;11.60;;;6.25;;
36009;SDS011;22076;52.182;5.404;2023-04-16T09:01:34;11.50;;;7.05;;
36009;SDS011;22076;52.182;5.404;2023-04-16T09:04:04;11.15;;;6.80;;
36009;SDS011;22076;52.182;5.404;2023-04-16T09:06:31;13.43;;;6.60;;
36009;SDS011;22076;52.182;5.404;2023-04-16T09:08:58;9.73;;;5.95;;
36009;SDS011;22076;52.182;5.404;2023-04-16T09:11:28;16.33;;;7.10;;
36009;SDS011;22076;52.182;5.404;2023-04-16T09:13:55;12.23;;;5.68;;
36009;SDS011;22076;52.182;5.404;2023-04-16T09:16:22;13.27;;;6.85;;
36009;SDS011;22076;52.182;5.404;2023-04-16T09:18:50;12.55;;;6.28;;
36009;SDS011;22076;52.182;5.404;2023-04-16T09:21:19;11.18;;;5.18;;
36009;SDS011;22076;52.182;5.404;2023-04-16T09:23:46;10.73;;;6.28;;
36009;SDS011;22076;52.182;5.404;2023-04-16T09:26:12;12.32;;;6.03;;
36009;SDS011;22076;52.182;5.404;2023-04-16T09:28:40;18.20;;;6.60;;
36009;SDS011;22076;52.182;5.404;2023-04-16T09:31:08;22.85;;;5.57;;
36009;SDS011;22076;52.182;5.404;2023-04-16T09:33:35;18.30;;;6.63;;
36009;SDS011;22076;52.182;5.404;2023-04-16T09:36:02;23.05;;;7.53;;
36009;SDS011;22076;52.182;5.404;2023-04-16T09:41:15;20.98;;;9.32;;
36009;SDS011;22076;52.182;5.404;2023-04-16T09:43:48;20.30;;;9.68;;
36009;SDS011;22076;52.182;5.404;2023-04-16T09:48:41;15.35;;;8.15;;
36009;SDS011;22076;52.182;5.404;2023-04-16T09:51:11;17.73;;;7.85;;
36009;SDS011;22076;52.182;5.404;2023-04-16T09:53:37;16.25;;;8.57;;
36009;SDS011;22076;52.182;5.404;2023-04-16T09:56:06;17.48;;;8.65;;
36009;SDS011;22076;52.182;5.404;2023-04-16T09:58:34;25.20;;;8.95;;
36009;SDS011;22076;52.182;5.404;2023-04-16T10:01:01;14.75;;;7.93;;
36009;SDS011;22076;52.182;5.404;2023-04-16T10:03:28;21.23;;;10.43;;
36009;SDS011;22076;52.182;5.404;2023-04-16T10:05:58;25.25;;;10.85;;
36009;SDS011;22076;52.182;5.404;2023-04-16T10:08:25;27.73;;;11.68;;
36009;SDS011;22076;52.182;5.404;2023-04-16T10:10:52;26.95;;;10.70;;
36009;SDS011;22076;52.182;5.404;2023-04-16T10:13:20;26.23;;;11.63;;
36009;SDS011;22076;52.182;5.404;2023-04-16T10:15:47;28.30;;;12.23;;
36009;SDS011;22076;52.182;5.404;2023-04-16T10:18:13;28.48;;;12.57;;
36009;SDS011;22076;52.182;5.404;2023-04-16T10:20:40;25.67;;;9.63;;
36009;SDS011;22076;52.182;5.404;2023-04-16T10:23:08;22.00;;;11.10;;
36009;SDS011;22076;52.182;5.404;2023-04-16T10:25:34;31.83;;;12.63;;
36009;SDS011;22076;52.182;5.404;2023-04-16T10:28:01;20.48;;;9.95;;
36009;SDS011;22076;52.182;5.404;2023-04-16T10:30:29;27.55;;;12.25;;
36009;SDS011;22076;52.182;5.404;2023-04-16T10:32:56;30.88;;;12.57;;
36009;SDS011;22076;52.182;5.404;2023-04-16T10:35:24;26.70;;;10.77;;
36009;SDS011;22076;52.182;5.404;2023-04-16T10:37:54;22.60;;;11.43;;
36009;SDS011;22076;52.182;5.404;2023-04-16T10:40:22;23.25;;;11.60;;
36009;SDS011;22076;52.182;5.404;2023-04-16T10:42:52;25.52;;;10.80;;
36009;SDS011;22076;52.182;5.404;2023-04-16T10:45:24;22.30;;;10.82;;
36009;SDS011;22076;52.182;5.404;2023-04-16T10:47:55;18.15;;;9.35;;
36009;SDS011;22076;52.182;5.404;2023-04-16T10:50:30;23.92;;;10.52;;
36009;SDS011;22076;52.182;5.404;2023-04-16T10:53:15;24.35;;;11.35;;
36009;SDS011;22076;52.182;5.404;2023-04-16T10:55:54;27.10;;;11.25;;
36009;SDS011;22076;52.182;5.404;2023-04-16T10:58:27;34.40;;;12.68;;
36009;SDS011;22076;52.182;5.404;2023-04-16T11:00:54;24.42;;;10.80;;
36009;SDS011;22076;52.182;5.404;2023-04-16T11:03:22;16.92;;;8.88;;
36009;SDS011;22076;52.182;5.404;2023-04-16T11:05:48;19.25;;;9.50;;
36009;SDS011;22076;52.182;5.404;2023-04-16T11:08:15;24.33;;;11.25;;
36009;SDS011;22076;52.182;5.404;2023-04-16T11:10:41;21.23;;;9.82;;
36009;SDS011;22076;52.182;5.404;2023-04-16T11:13:08;25.45;;;12.15;;
36009;SDS011;22076;52.182;5.404;2023-04-16T11:15:38;20.00;;;9.63;;
36009;SDS011;22076;52.182;5.404;2023-04-16T11:18:04;24.33;;;10.50;;
36009;SDS011;22076;52.182;5.404;2023-04-16T11:20:32;30.83;;;12.68;;
36009;SDS011;22076;52.182;5.404;2023-04-16T11:22:59;24.52;;;12.43;;
36009;SDS011;22076;52.182;5.404;2023-04-16T11:25:26;25.17;;;11.38;;
36009;SDS011;22076;52.182;5.404;2023-04-16T11:27:54;28.17;;;12.50;;
36009;SDS011;22076;52.182;5.404;2023-04-16T11:30:27;23.75;;;12.13;;
36009;SDS011;22076;52.182;5.404;2023-04-16T11:32:53;27.60;;;14.80;;
36009;SDS011;22076;52.182;5.404;2023-04-16T11:35:20;29.40;;;12.75;;
36009;SDS011;22076;52.182;5.404;2023-04-16T11:37:48;28.63;;;13.80;;
36009;SDS011;22076;52.182;5.404;2023-04-16T11:40:15;22.63;;;12.75;;
36009;SDS011;22076;52.182;5.404;2023-04-16T11:42:41;27.48;;;13.02;;
36009;SDS011;22076;52.182;5.404;2023-04-16T11:45:08;26.95;;;12.30;;
36009;SDS011;22076;52.182;5.404;2023-04-16T11:47:41;30.92;;;13.98;;
36009;SDS011;22076;52.182;5.404;2023-04-16T11:50:17;32.78;;;14.52;;
36009;SDS011;22076;52.182;5.404;2023-04-16T11:52:45;30.60;;;16.23;;
36009;SDS011;22076;52.182;5.404;2023-04-16T11:55:13;33.30;;;15.35;;
36009;SDS011;22076;52.182;5.404;2023-04-16T11:57:40;27.98;;;13.13;;
36009;SDS011;22076;52.182;5.404;2023-04-16T12:00:08;35.45;;;15.43;;
36009;SDS011;22076;52.182;5.404;2023-04-16T12:02:38;27.30;;;13.80;;
36009;SDS011;22076;52.182;5.404;2023-04-16T12:05:05;30.27;;;12.75;;
36009;SDS011;22076;52.182;5.404;2023-04-16T12:07:42;25.17;;;12.32;;
36009;SDS011;22076;52.182;5.404;2023-04-16T12:10:09;20.13;;;10.63;;
36009;SDS011;22076;52.182;5.404;2023-04-16T12:12:38;26.92;;;11.73;;
36009;SDS011;22076;52.182;5.404;2023-04-16T12:15:04;23.23;;;11.48;;
36009;SDS011;22076;52.182;5.404;2023-04-16T12:17:32;25.90;;;12.20;;
36009;SDS011;22076;52.182;5.404;2023-04-16T12:20:00;26.45;;;13.18;;
36009;SDS011;22076;52.182;5.404;2023-04-16T12:22:30;25.05;;;12.25;;
36009;SDS011;22076;52.182;5.404;2023-04-16T12:24:58;26.52;;;11.52;;
36009;SDS011;22076;52.182;5.404;2023-04-16T12:27:40;34.38;;;12.73;;
36009;SDS011;22076;52.182;5.404;2023-04-16T12:30:09;23.20;;;12.85;;
36009;SDS011;22076;52.182;5.404;2023-04-16T12:32:36;26.48;;;13.05;;
36009;SDS011;22076;52.182;5.404;2023-04-16T12:35:03;26.08;;;12.85;;
36009;SDS011;22076;52.182;5.404;2023-04-16T12:37:30;31.50;;;13.15;;
36009;SDS011;22076;52.182;5.404;2023-04-16T12:39:56;27.50;;;10.73;;
36009;SDS011;22076;52.182;5.404;2023-04-16T12:42:23;22.00;;;10.10;;
36009;SDS011;22076;52.182;5.404;2023-04-16T12:44:51;24.27;;;11.05;;
36009;SDS011;22076;52.182;5.404;2023-04-16T12:47:17;29.02;;;12.55;;
36009;SDS011;22076;52.182;5.404;2023-04-16T12:49:44;28.95;;;11.98;;
36009;SDS011;22076;52.182;5.404;2023-04-16T12:52:10;20.17;;;10.95;;
36009;SDS011;22076;52.182;5.404;2023-04-16T12:54:37;28.00;;;12.93;;
36009;SDS011;22076;52.182;5.404;2023-04-16T12:57:04;19.83;;;10.70;;
36009;SDS011;22076;52.182;5.404;2023-04-16T12:59:30;27.58;;;13.25;;
36009;SDS011;22076;52.182;5.404;2023-04-16T13:01:59;28.02;;;13.00;;
36009;SDS011;22076;52.182;5.404;2023-04-16T13:04:25;27.77;;;14.65;;
36009;SDS011;22076;52.182;5.404;2023-04-16T13:06:52;23.05;;;10.43;;
36009;SDS011;22076;52.182;5.404;2023-04-16T13:09:18;26.33;;;11.93;;
36009;SDS011;22076;52.182;5.404;2023-04-16T13:11:45;30.92;;;13.30;;
36009;SDS011;22076;52.182;5.404;2023-04-16T13:14:11;37.45;;;14.68;;
36009;SDS011;22076;52.182;5.404;2023-04-16T13:16:38;34.85;;;14.55;;
36009;SDS011;22076;52.182;5.404;2023-04-16T13:19:06;27.38;;;11.90;;
36009;SDS011;22076;52.182;5.404;2023-04-16T13:21:32;34.40;;;13.38;;
36009;SDS011;22076;52.182;5.404;2023-04-16T13:23:59;35.95;;;14.02;;
36009;SDS011;22076;52.182;5.404;2023-04-16T13:26:25;30.15;;;13.10;;
36009;SDS011;22076;52.182;5.404;2023-04-16T13:28:52;26.90;;;11.75;;
36009;SDS011;22076;52.182;5.404;2023-04-16T13:31:19;30.10;;;12.93;;
36009;SDS011;22076;52.182;5.404;2023-04-16T13:33:46;37.80;;;13.93;;
36009;SDS011;22076;52.182;5.404;2023-04-16T13:36:14;23.92;;;12.27;;
36009;SDS011;22076;52.182;5.404;2023-04-16T13:38:40;28.27;;;12.23;;
36009;SDS011;22076;52.182;5.404;2023-04-16T13:41:07;28.20;;;12.38;;
36009;SDS011;22076;52.182;5.404;2023-04-16T13:43:33;27.52;;;12.55;;
36009;SDS011;22076;52.182;5.404;2023-04-16T13:46:00;29.38;;;12.43;;
36009;SDS011;22076;52.182;5.404;2023-04-16T13:48:26;24.30;;;12.77;;
36009;SDS011;22076;52.182;5.404;2023-04-16T13:50:53;24.88;;;11.90;;
36009;SDS011;22076;52.182;5.404;2023-04-16T13:53:21;31.23;;;12.88;;
36009;SDS011;22076;52.182;5.404;2023-04-16T13:55:47;24.05;;;10.27;;
36009;SDS011;22076;52.182;5.404;2023-04-16T13:58:14;27.63;;;12.20;;
36009;SDS011;22076;52.182;5.404;2023-04-16T14:00:41;21.42;;;10.98;;
36009;SDS011;22076;52.182;5.404;2023-04-16T14:03:08;22.42;;;11.95;;
36009;SDS011;22076;52.182;5.404;2023-04-16T14:05:34;24.27;;;12.10;;
36009;SDS011;22076;52.182;5.404;2023-04-16T14:08:01;27.60;;;11.60;;
36009;SDS011;22076;52.182;5.404;2023-04-16T14:10:29;25.77;;;11.80;;
36009;SDS011;22076;52.182;5.404;2023-04-16T14:12:56;27.30;;;11.25;;
36009;SDS011;22076;52.182;5.404;2023-04-16T14:15:22;29.08;;;11.85;;
36009;SDS011;22076;52.182;5.404;2023-04-16T14:17:51;22.05;;;9.88;;
36009;SDS011;22076;52.182;5.404;2023-04-16T14:20:18;24.42;;;10.98;;
36009;SDS011;22076;52.182;5.404;2023-04-16T14:22:45;28.00;;;12.82;;
36009;SDS011;22076;52.182;5.404;2023-04-16T14:25:11;22.98;;;10.40;;
36009;SDS011;22076;52.182;5.404;2023-04-16T14:27:39;27.70;;;12.95;;
36009;SDS011;22076;52.182;5.404;2023-04-16T14:30:06;25.48;;;10.82;;
36009;SDS011;22076;52.182;5.404;2023-04-16T14:32:33;35.90;;;12.95;;
36009;SDS011;22076;52.182;5.404;2023-04-16T14:35:00;28.52;;;11.20;;